sensor_id;sensor_type;location;lat;lon;timestamp;P1;durP1;ratioP1;P2;durP2;ratioP2
17832;SDS011;9041;49.718;21.798;2024-01-10T00:02:22;189.23;;;50.03;;
17832;SDS011;9041;49.718;21.798;2024-01-10T00:04:49;172.10;;;48.07;;
17832;SDS011;9041;49.718;21.798;2024-01-10T00:07:17;147.13;;;43.07;;
17832;SDS011;9041;49.718;21.798;2024-01-10T00:09:43;152.50;;;40.43;;
17832;SDS011;9041;49.718;21.798;2024-01-10T00:12:10;150.97;;;42.10;;
17832;SDS011;9041;49.718;21.798;2024-01-10T00:14:39;151.27;;;44.27;;
17832;SDS011;9041;49.718;21.798;2024-01-10T00:17:05;186.10;;;43.07;;
17832;SDS011;9041;49.718;21.798;2024-01-10T00:19:32;127.43;;;36.80;;
17832;SDS011;9041;49.718;21.798;2024-01-10T00:21:59;132.67;;;37.43;;
17832;SDS011;9041;49.718;21.798;2024-01-10T00:24:25;147.60;;;38.87;;
17832;SDS011;9041;49.718;21.798;2024-01-10T00:26:52;123.37;;;34.77;;
17832;SDS011;9041;49.718;21.798;2024-01-10T00:29:18;125.97;;;34.43;;
17832;SDS011;9041;49.718;21.798;2024-01-10T00:31:46;141.47;;;35.80;;
17832;SDS011;9041;49.718;21.798;2024-01-10T00:34:13;119.57;;;32.67;;
17832;SDS011;9041;49.718;21.798;2024-01-10T00:36:39;132.13;;;34.60;;
17832;SDS011;9041;49.718;21.798;2024-01-10T00:39:06;126.97;;;36.80;;
17832;SDS011;9041;49.718;21.798;2024-01-10T00:41:33;121.17;;;35.87;;
17832;SDS011;9041;49.718;21.798;2024-01-10T00:44:00;124.17;;;35.63;;
17832;SDS011;9041;49.718;21.798;2024-01-10T00:46:26;131.23;;;36.20;;
17832;SDS011;9041;49.718;21.798;2024-01-10T00:48:54;139.90;;;39.10;;
17832;SDS011;9041;49.718;21.798;2024-01-10T00:51:21;125.77;;;37.70;;
17832;SDS011;9041;49.718;21.798;2024-01-10T00:53:48;118.70;;;32.90;;
17832;SDS011;9041;49.718;21.798;2024-01-10T00:56:14;102.10;;;32.70;;
17832;SDS011;9041;49.718;21.798;2024-01-10T00:58:41;116.10;;;34.80;;
17832;SDS011;9041;49.718;21.798;2024-01-10T01:01:08;117.77;;;31.97;;
17832;SDS011;9041;49.718;21.798;2024-01-10T01:03:34;101.53;;;30.60;;
17832;SDS011;9041;49.718;21.798;2024-01-10T01:06:02;106.03;;;30.83;;
17832;SDS011;9041;49.718;21.798;2024-01-10T01:08:29;108.13;;;31.63;;
17832;SDS011;9041;49.718;21.798;2024-01-10T01:10:56;93.87;;;30.07;;
17832;SDS011;9041;49.718;21.798;2024-01-10T01:13:23;115.37;;;31.53;;
17832;SDS011;9041;49.718;21.798;2024-01-10T01:15:49;113.20;;;32.93;;
17832;SDS011;9041;49.718;21.798;2024-01-10T01:18:16;129.40;;;33.43;;
17832;SDS011;9041;49.718;21.798;2024-01-10T01:20:44;124.60;;;31.00;;
17832;SDS011;9041;49.718;21.798;2024-01-10T01:23:13;111.80;;;33.40;;
17832;SDS011;9041;49.718;21.798;2024-01-10T01:25:40;109.73;;;30.10;;
17832;SDS011;9041;49.718;21.798;2024-01-10T01:28:07;102.53;;;30.90;;
17832;SDS011;9041;49.718;21.798;2024-01-10T01:30:33;104.00;;;33.63;;
17832;SDS011;9041;49.718;21.798;2024-01-10T01:33:00;127.07;;;34.90;;
17832;SDS011;9041;49.718;21.798;2024-01-10T01:35:29;163.17;;;44.70;;
17832;SDS011;9041;49.718;21.798;2024-01-10T01:37:56;182.07;;;48.87;;
17832;SDS011;9041;49.718;21.798;2024-01-10T01:40:24;140.77;;;41.43;;
17832;SDS011;9041;49.718;21.798;2024-01-10T01:42:51;104.27;;;31.27;;
17832;SDS011;9041;49.718;21.798;2024-01-10T01:45:18;128.40;;;33.90;;
17832;SDS011;9041;49.718;21.798;2024-01-10T01:47:45;139.80;;;39.00;;
17832;SDS011;9041;49.718;21.798;2024-01-10T01:50:11;145.73;;;38.07;;
17832;SDS011;9041;49.718;21.798;2024-01-10T01:52:38;159.80;;;44.83;;
17832;SDS011;9041;49.718;21.798;2024-01-10T01:55:06;144.20;;;41.00;;
17832;SDS011;9041;49.718;21.798;2024-01-10T01:57:35;163.50;;;43.63;;
17832;SDS011;9041;49.718;21.798;2024-01-10T02:00:03;193.07;;;51.17;;
17832;SDS011;9041;49.718;21.798;2024-01-10T02:02:31;192.03;;;53.73;;
17832;SDS011;9041;49.718;21.798;2024-01-10T02:04:59;170.83;;;49.10;;
17832;SDS011;9041;49.718;21.798;2024-01-10T02:07:26;159.10;;;42.20;;
17832;SDS011;9041;49.718;21.798;2024-01-10T02:09:53;140.23;;;40.07;;
17832;SDS011;9041;49.718;21.798;2024-01-10T02:12:20;161.30;;;46.60;;
17832;SDS011;9041;49.718;21.798;2024-01-10T02:14:48;161.83;;;45.37;;
17832;SDS011;9041;49.718;21.798;2024-01-10T02:17:14;160.03;;;48.87;;
17832;SDS011;9041;49.718;21.798;2024-01-10T02:19:42;185.80;;;51.40;;
17832;SDS011;9041;49.718;21.798;2024-01-10T02:22:08;164.80;;;52.13;;
17832;SDS011;9041;49.718;21.798;2024-01-10T02:24:36;154.00;;;44.03;;
17832;SDS011;9041;49.718;21.798;2024-01-10T02:27:04;148.23;;;43.50;;
17832;SDS011;9041;49.718;21.798;2024-01-10T02:29:31;181.47;;;49.53;;
17832;SDS011;9041;49.718;21.798;2024-01-10T02:31:58;164.73;;;46.53;;
17832;SDS011;9041;49.718;21.798;2024-01-10T02:34:24;170.40;;;44.47;;
17832;SDS011;9041;49.718;21.798;2024-01-10T02:36:50;152.50;;;45.00;;
17832;SDS011;9041;49.718;21.798;2024-01-10T02:39:16;154.23;;;43.10;;
17832;SDS011;9041;49.718;21.798;2024-01-10T02:41:43;123.70;;;38.20;;
17832;SDS011;9041;49.718;21.798;2024-01-10T02:44:11;127.00;;;36.63;;
17832;SDS011;9041;49.718;21.798;2024-01-10T02:46:39;115.10;;;34.57;;
17832;SDS011;9041;49.718;21.798;2024-01-10T02:49:05;118.50;;;33.53;;
17832;SDS011;9041;49.718;21.798;2024-01-10T02:51:32;102.87;;;33.30;;
17832;SDS011;9041;49.718;21.798;2024-01-10T02:53:59;112.73;;;33.70;;
17832;SDS011;9041;49.718;21.798;2024-01-10T02:56:26;135.23;;;36.50;;
17832;SDS011;9041;49.718;21.798;2024-01-10T02:58:52;121.80;;;38.63;;
17832;SDS011;9041;49.718;21.798;2024-01-10T03:01:20;108.43;;;35.83;;
17832;SDS011;9041;49.718;21.798;2024-01-10T03:03:47;143.00;;;38.83;;
17832;SDS011;9041;49.718;21.798;2024-01-10T03:06:14;117.37;;;34.13;;
17832;SDS011;9041;49.718;21.798;2024-01-10T03:08:39;130.47;;;40.97;;
17832;SDS011;9041;49.718;21.798;2024-01-10T03:11:06;144.73;;;46.40;;
17832;SDS011;9041;49.718;21.798;2024-01-10T03:13:32;185.03;;;46.63;;
17832;SDS011;9041;49.718;21.798;2024-01-10T03:15:59;156.60;;;46.47;;
17832;SDS011;9041;49.718;21.798;2024-01-10T03:18:27;152.60;;;44.10;;
17832;SDS011;9041;49.718;21.798;2024-01-10T03:20:53;145.53;;;40.70;;
17832;SDS011;9041;49.718;21.798;2024-01-10T03:23:21;135.07;;;40.00;;
17832;SDS011;9041;49.718;21.798;2024-01-10T03:25:47;139.10;;;41.73;;
17832;SDS011;9041;49.718;21.798;2024-01-10T03:28:15;146.13;;;39.07;;
17832;SDS011;9041;49.718;21.798;2024-01-10T03:30:42;161.47;;;41.50;;
17832;SDS011;9041;49.718;21.798;2024-01-10T03:33:08;154.63;;;44.13;;
17832;SDS011;9041;49.718;21.798;2024-01-10T03:35:37;149.57;;;44.63;;
17832;SDS011;9041;49.718;21.798;2024-01-10T03:38:04;93.43;;;31.77;;
17832;SDS011;9041;49.718;21.798;2024-01-10T03:40:30;130.67;;;36.83;;
17832;SDS011;9041;49.718;21.798;2024-01-10T03:42:57;167.50;;;46.30;;
17832;SDS011;9041;49.718;21.798;2024-01-10T03:45:24;153.47;;;43.07;;
17832;SDS011;9041;49.718;21.798;2024-01-10T03:47:50;139.00;;;43.03;;
17832;SDS011;9041;49.718;21.798;2024-01-10T03:50:17;147.67;;;41.00;;
17832;SDS011;9041;49.718;21.798;2024-01-10T03:52:46;172.33;;;43.97;;
17832;SDS011;9041;49.718;21.798;2024-01-10T03:55:13;132.73;;;38.83;;
17832;SDS011;9041;49.718;21.798;2024-01-10T03:57:40;136.20;;;37.33;;
17832;SDS011;9041;49.718;21.798;2024-01-10T04:00:07;127.83;;;36.30;;
17832;SDS011;9041;49.718;21.798;2024-01-10T04:02:35;117.10;;;35.37;;
17832;SDS011;9041;49.718;21.798;2024-01-10T04:05:05;128.37;;;34.27;;
17832;SDS011;9041;49.718;21.798;2024-01-10T04:07:32;111.80;;;30.20;;
17832;SDS011;9041;49.718;21.798;2024-01-10T04:10:00;87.73;;;26.77;;
17832;SDS011;9041;49.718;21.798;2024-01-10T04:12:27;107.77;;;30.50;;
17832;SDS011;9041;49.718;21.798;2024-01-10T04:14:54;77.33;;;26.90;;
17832;SDS011;9041;49.718;21.798;2024-01-10T04:17:20;91.20;;;31.33;;
17832;SDS011;9041;49.718;21.798;2024-01-10T04:19:47;124.60;;;34.07;;
17832;SDS011;9041;49.718;21.798;2024-01-10T04:22:14;105.97;;;32.53;;
17832;SDS011;9041;49.718;21.798;2024-01-10T04:24:40;114.20;;;30.40;;
17832;SDS011;9041;49.718;21.798;2024-01-10T04:27:08;112.50;;;33.47;;
17832;SDS011;9041;49.718;21.798;2024-01-10T04:29:35;125.03;;;33.07;;
17832;SDS011;9041;49.718;21.798;2024-01-10T04:32:02;99.73;;;30.07;;
17832;SDS011;9041;49.718;21.798;2024-01-10T04:34:29;115.90;;;32.53;;
17832;SDS011;9041;49.718;21.798;2024-01-10T04:36:55;113.30;;;33.27;;
17832;SDS011;9041;49.718;21.798;2024-01-10T04:39:22;105.83;;;31.83;;
17832;SDS011;9041;49.718;21.798;2024-01-10T04:41:49;120.23;;;32.63;;
17832;SDS011;9041;49.718;21.798;2024-01-10T04:44:17;100.10;;;28.33;;
17832;SDS011;9041;49.718;21.798;2024-01-10T04:46:44;106.37;;;31.27;;
17832;SDS011;9041;49.718;21.798;2024-01-10T04:49:10;91.40;;;28.23;;
17832;SDS011;9041;49.718;21.798;2024-01-10T04:51:37;103.37;;;31.23;;
17832;SDS011;9041;49.718;21.798;2024-01-10T04:54:03;99.43;;;30.30;;
17832;SDS011;9041;49.718;21.798;2024-01-10T04:56:30;134.67;;;36.30;;
17832;SDS011;9041;49.718;21.798;2024-01-10T04:58:57;128.27;;;35.20;;
17832;SDS011;9041;49.718;21.798;2024-01-10T05:01:25;107.83;;;30.93;;
17832;SDS011;9041;49.718;21.798;2024-01-10T05:03:51;128.13;;;35.87;;
17832;SDS011;9041;49.718;21.798;2024-01-10T05:06:18;136.23;;;39.63;;
17832;SDS011;9041;49.718;21.798;2024-01-10T05:08:45;124.40;;;35.13;;
17832;SDS011;9041;49.718;21.798;2024-01-10T05:11:12;113.83;;;32.40;;
17832;SDS011;9041;49.718;21.798;2024-01-10T05:13:41;116.73;;;33.90;;
17832;SDS011;9041;49.718;21.798;2024-01-10T05:16:08;118.23;;;36.23;;
17832;SDS011;9041;49.718;21.798;2024-01-10T05:18:36;108.30;;;31.30;;
17832;SDS011;9041;49.718;21.798;2024-01-10T05:21:02;107.97;;;33.57;;
17832;SDS011;9041;49.718;21.798;2024-01-10T05:23:30;104.77;;;32.80;;
17832;SDS011;9041;49.718;21.798;2024-01-10T05:25:57;111.33;;;28.33;;
17832;SDS011;9041;49.718;21.798;2024-01-10T05:28:24;103.00;;;28.37;;
17832;SDS011;9041;49.718;21.798;2024-01-10T05:30:50;96.53;;;26.77;;
17832;SDS011;9041;49.718;21.798;2024-01-10T05:33:17;98.37;;;27.87;;
17832;SDS011;9041;49.718;21.798;2024-01-10T05:35:45;89.90;;;26.80;;
17832;SDS011;9041;49.718;21.798;2024-01-10T05:38:12;80.03;;;25.00;;
17832;SDS011;9041;49.718;21.798;2024-01-10T05:40:38;92.83;;;26.43;;
17832;SDS011;9041;49.718;21.798;2024-01-10T05:43:05;98.97;;;27.40;;
17832;SDS011;9041;49.718;21.798;2024-01-10T05:45:33;93.37;;;28.23;;
17832;SDS011;9041;49.718;21.798;2024-01-10T05:47:59;79.30;;;26.53;;
17832;SDS011;9041;49.718;21.798;2024-01-10T05:50:26;78.67;;;25.10;;
17832;SDS011;9041;49.718;21.798;2024-01-10T05:52:54;118.43;;;33.77;;
17832;SDS011;9041;49.718;21.798;2024-01-10T05:55:21;82.77;;;27.00;;
17832;SDS011;9041;49.718;21.798;2024-01-10T05:57:48;111.47;;;31.90;;
17832;SDS011;9041;49.718;21.798;2024-01-10T06:00:15;104.83;;;30.37;;
17832;SDS011;9041;49.718;21.798;2024-01-10T06:02:42;81.73;;;29.73;;
17832;SDS011;9041;49.718;21.798;2024-01-10T06:05:09;121.20;;;37.87;;
17832;SDS011;9041;49.718;21.798;2024-01-10T06:07:36;100.80;;;31.47;;
17832;SDS011;9041;49.718;21.798;2024-01-10T06:10:05;136.60;;;36.43;;
17832;SDS011;9041;49.718;21.798;2024-01-10T06:12:33;112.73;;;34.17;;
17832;SDS011;9041;49.718;21.798;2024-01-10T06:14:59;128.40;;;37.73;;
17832;SDS011;9041;49.718;21.798;2024-01-10T06:17:26;133.53;;;36.67;;
17832;SDS011;9041;49.718;21.798;2024-01-10T06:19:52;96.87;;;29.90;;
17832;SDS011;9041;49.718;21.798;2024-01-10T06:22:19;84.70;;;28.73;;
17832;SDS011;9041;49.718;21.798;2024-01-10T06:24:50;98.63;;;30.73;;
17832;SDS011;9041;49.718;21.798;2024-01-10T06:27:18;116.03;;;34.03;;
17832;SDS011;9041;49.718;21.798;2024-01-10T06:29:44;83.30;;;29.07;;
17832;SDS011;9041;49.718;21.798;2024-01-10T06:32:11;113.60;;;33.73;;
17832;SDS011;9041;49.718;21.798;2024-01-10T06:34:39;135.67;;;40.87;;
17832;SDS011;9041;49.718;21.798;2024-01-10T06:37:06;137.00;;;41.10;;
17832;SDS011;9041;49.718;21.798;2024-01-10T06:39:32;142.90;;;40.97;;
17832;SDS011;9041;49.718;21.798;2024-01-10T06:41:59;165.50;;;46.20;;
17832;SDS011;9041;49.718;21.798;2024-01-10T06:44:30;130.97;;;39.20;;
17832;SDS011;9041;49.718;21.798;2024-01-10T06:46:56;141.37;;;39.40;;
17832;SDS011;9041;49.718;21.798;2024-01-10T06:49:23;144.03;;;43.73;;
17832;SDS011;9041;49.718;21.798;2024-01-10T06:51:49;131.83;;;39.63;;
17832;SDS011;9041;49.718;21.798;2024-01-10T06:54:16;149.43;;;41.23;;
17832;SDS011;9041;49.718;21.798;2024-01-10T06:56:43;141.27;;;40.13;;
17832;SDS011;9041;49.718;21.798;2024-01-10T06:59:10;146.47;;;44.63;;
17832;SDS011;9041;49.718;21.798;2024-01-10T07:01:38;140.57;;;40.40;;
17832;SDS011;9041;49.718;21.798;2024-01-10T07:04:05;136.60;;;41.67;;
17832;SDS011;9041;49.718;21.798;2024-01-10T07:06:31;145.07;;;44.23;;
17832;SDS011;9041;49.718;21.798;2024-01-10T07:08:58;120.83;;;38.13;;
17832;SDS011;9041;49.718;21.798;2024-01-10T07:11:25;130.30;;;39.47;;
17832;SDS011;9041;49.718;21.798;2024-01-10T07:13:53;121.37;;;36.40;;
17832;SDS011;9041;49.718;21.798;2024-01-10T07:16:19;124.77;;;38.10;;
17832;SDS011;9041;49.718;21.798;2024-01-10T07:18:47;163.33;;;46.20;;
17832;SDS011;9041;49.718;21.798;2024-01-10T07:21:16;199.63;;;57.87;;
17832;SDS011;9041;49.718;21.798;2024-01-10T07:23:43;213.43;;;63.33;;
17832;SDS011;9041;49.718;21.798;2024-01-10T07:26:12;245.10;;;70.73;;
17832;SDS011;9041;49.718;21.798;2024-01-10T07:28:39;294.10;;;78.27;;
17832;SDS011;9041;49.718;21.798;2024-01-10T07:31:07;304.20;;;83.83;;
17832;SDS011;9041;49.718;21.798;2024-01-10T07:33:33;294.33;;;77.43;;
17832;SDS011;9041;49.718;21.798;2024-01-10T07:36:01;275.77;;;74.87;;
17832;SDS011;9041;49.718;21.798;2024-01-10T07:38:28;236.27;;;66.73;;
17832;SDS011;9041;49.718;21.798;2024-01-10T07:40:55;165.60;;;49.17;;
17832;SDS011;9041;49.718;21.798;2024-01-10T07:43:22;206.80;;;61.13;;
17832;SDS011;9041;49.718;21.798;2024-01-10T07:45:48;191.60;;;53.80;;
17832;SDS011;9041;49.718;21.798;2024-01-10T07:48:15;130.43;;;48.20;;
17832;SDS011;9041;49.718;21.798;2024-01-10T07:50:41;144.30;;;40.83;;
17832;SDS011;9041;49.718;21.798;2024-01-10T07:53:10;97.73;;;32.30;;
17832;SDS011;9041;49.718;21.798;2024-01-10T07:55:36;203.57;;;54.17;;
17832;SDS011;9041;49.718;21.798;2024-01-10T07:58:03;141.73;;;49.13;;
17832;SDS011;9041;49.718;21.798;2024-01-10T08:00:30;315.67;;;90.00;;
17832;SDS011;9041;49.718;21.798;2024-01-10T08:02:57;217.07;;;61.10;;
17832;SDS011;9041;49.718;21.798;2024-01-10T08:05:24;230.83;;;62.87;;
17832;SDS011;9041;49.718;21.798;2024-01-10T08:07:51;211.13;;;57.10;;
17832;SDS011;9041;49.718;21.798;2024-01-10T08:10:19;137.33;;;48.53;;
17832;SDS011;9041;49.718;21.798;2024-01-10T08:12:45;71.80;;;26.27;;
17832;SDS011;9041;49.718;21.798;2024-01-10T08:15:12;189.70;;;58.60;;
17832;SDS011;9041;49.718;21.798;2024-01-10T08:17:39;151.13;;;48.53;;
17832;SDS011;9041;49.718;21.798;2024-01-10T08:20:06;180.17;;;53.83;;
17832;SDS011;9041;49.718;21.798;2024-01-10T08:22:35;164.43;;;49.07;;
17832;SDS011;9041;49.718;21.798;2024-01-10T08:25:02;204.93;;;60.70;;
17832;SDS011;9041;49.718;21.798;2024-01-10T08:27:30;187.27;;;50.80;;
17832;SDS011;9041;49.718;21.798;2024-01-10T08:29:58;207.27;;;52.53;;
17832;SDS011;9041;49.718;21.798;2024-01-10T08:32:25;139.80;;;46.50;;
17832;SDS011;9041;49.718;21.798;2024-01-10T08:34:51;182.60;;;50.90;;
17832;SDS011;9041;49.718;21.798;2024-01-10T08:37:18;153.07;;;47.10;;
17832;SDS011;9041;49.718;21.798;2024-01-10T08:39:45;161.63;;;46.37;;
17832;SDS011;9041;49.718;21.798;2024-01-10T08:42:11;181.80;;;49.23;;
17832;SDS011;9041;49.718;21.798;2024-01-10T08:44:39;137.57;;;45.40;;
17832;SDS011;9041;49.718;21.798;2024-01-10T08:47:07;202.67;;;58.77;;
17832;SDS011;9041;49.718;21.798;2024-01-10T08:49:33;180.83;;;53.63;;
17832;SDS011;9041;49.718;21.798;2024-01-10T08:52:00;194.83;;;52.13;;
17832;SDS011;9041;49.718;21.798;2024-01-10T08:54:27;155.90;;;45.10;;
17832;SDS011;9041;49.718;21.798;2024-01-10T08:56:54;197.23;;;54.07;;
17832;SDS011;9041;49.718;21.798;2024-01-10T08:59:20;153.90;;;44.43;;
17832;SDS011;9041;49.718;21.798;2024-01-10T09:01:48;158.57;;;51.53;;
17832;SDS011;9041;49.718;21.798;2024-01-10T09:04:15;199.07;;;58.30;;
17832;SDS011;9041;49.718;21.798;2024-01-10T09:06:41;184.73;;;53.70;;
17832;SDS011;9041;49.718;21.798;2024-01-10T09:09:09;193.67;;;54.97;;
17832;SDS011;9041;49.718;21.798;2024-01-10T09:11:35;140.57;;;38.17;;
17832;SDS011;9041;49.718;21.798;2024-01-10T09:14:02;204.77;;;55.70;;
17832;SDS011;9041;49.718;21.798;2024-01-10T09:16:29;169.67;;;48.63;;
17832;SDS011;9041;49.718;21.798;2024-01-10T09:18:57;165.23;;;48.73;;
17832;SDS011;9041;49.718;21.798;2024-01-10T09:21:25;190.13;;;56.63;;
17832;SDS011;9041;49.718;21.798;2024-01-10T09:23:51;174.93;;;51.37;;
17832;SDS011;9041;49.718;21.798;2024-01-10T09:26:19;201.27;;;56.10;;
17832;SDS011;9041;49.718;21.798;2024-01-10T09:28:46;179.67;;;50.23;;
17832;SDS011;9041;49.718;21.798;2024-01-10T09:31:12;205.07;;;56.83;;
17832;SDS011;9041;49.718;21.798;2024-01-10T09:33:39;213.00;;;59.40;;
17832;SDS011;9041;49.718;21.798;2024-01-10T09:36:07;211.73;;;61.20;;
17832;SDS011;9041;49.718;21.798;2024-01-10T09:38:34;213.63;;;56.80;;
17832;SDS011;9041;49.718;21.798;2024-01-10T09:41:02;202.87;;;56.63;;
17832;SDS011;9041;49.718;21.798;2024-01-10T09:43:30;191.27;;;53.53;;
17832;SDS011;9041;49.718;21.798;2024-01-10T09:45:58;213.13;;;60.23;;
17832;SDS011;9041;49.718;21.798;2024-01-10T09:48:26;194.53;;;58.00;;
17832;SDS011;9041;49.718;21.798;2024-01-10T09:50:53;214.70;;;58.60;;
17832;SDS011;9041;49.718;21.798;2024-01-10T09:53:22;221.43;;;58.60;;
17832;SDS011;9041;49.718;21.798;2024-01-10T09:55:49;196.30;;;54.00;;
17832;SDS011;9041;49.718;21.798;2024-01-10T09:58:16;198.30;;;54.10;;
17832;SDS011;9041;49.718;21.798;2024-01-10T10:00:43;168.83;;;50.83;;
17832;SDS011;9041;49.718;21.798;2024-01-10T10:03:10;182.83;;;52.30;;
17832;SDS011;9041;49.718;21.798;2024-01-10T10:05:38;184.83;;;51.17;;
17832;SDS011;9041;49.718;21.798;2024-01-10T10:08:07;183.93;;;53.03;;
17832;SDS011;9041;49.718;21.798;2024-01-10T10:10:36;164.83;;;48.30;;
17832;SDS011;9041;49.718;21.798;2024-01-10T10:13:08;181.70;;;49.07;;
17832;SDS011;9041;49.718;21.798;2024-01-10T10:15:36;222.47;;;57.37;;
17832;SDS011;9041;49.718;21.798;2024-01-10T10:18:03;323.20;;;71.97;;
17832;SDS011;9041;49.718;21.798;2024-01-10T10:20:30;288.73;;;68.73;;
17832;SDS011;9041;49.718;21.798;2024-01-10T10:22:58;297.20;;;72.67;;
17832;SDS011;9041;49.718;21.798;2024-01-10T10:25:26;284.03;;;69.20;;
17832;SDS011;9041;49.718;21.798;2024-01-10T10:27:55;241.87;;;64.50;;
17832;SDS011;9041;49.718;21.798;2024-01-10T10:30:22;212.97;;;56.87;;
17832;SDS011;9041;49.718;21.798;2024-01-10T10:32:48;175.90;;;51.37;;
17832;SDS011;9041;49.718;21.798;2024-01-10T10:35:15;199.27;;;54.17;;
17832;SDS011;9041;49.718;21.798;2024-01-10T10:37:42;193.53;;;52.73;;
17832;SDS011;9041;49.718;21.798;2024-01-10T10:40:09;257.83;;;65.40;;
17832;SDS011;9041;49.718;21.798;2024-01-10T10:42:36;218.30;;;60.13;;
17832;SDS011;9041;49.718;21.798;2024-01-10T10:45:08;230.43;;;58.00;;
17832;SDS011;9041;49.718;21.798;2024-01-10T10:47:36;249.93;;;66.00;;
17832;SDS011;9041;49.718;21.798;2024-01-10T10:50:03;227.93;;;63.73;;
17832;SDS011;9041;49.718;21.798;2024-01-10T10:52:31;230.50;;;61.53;;
17832;SDS011;9041;49.718;21.798;2024-01-10T10:54:58;222.23;;;62.23;;
17832;SDS011;9041;49.718;21.798;2024-01-10T10:57:25;228.83;;;63.50;;
17832;SDS011;9041;49.718;21.798;2024-01-10T10:59:53;216.33;;;59.70;;
17832;SDS011;9041;49.718;21.798;2024-01-10T11:02:21;215.63;;;54.33;;
17832;SDS011;9041;49.718;21.798;2024-01-10T11:04:49;196.20;;;55.40;;
17832;SDS011;9041;49.718;21.798;2024-01-10T11:07:16;243.50;;;61.13;;
17832;SDS011;9041;49.718;21.798;2024-01-10T11:09:42;229.90;;;61.03;;
17832;SDS011;9041;49.718;21.798;2024-01-10T11:12:16;213.67;;;59.53;;
17832;SDS011;9041;49.718;21.798;2024-01-10T11:14:59;211.53;;;62.50;;
17832;SDS011;9041;49.718;21.798;2024-01-10T11:17:41;216.97;;;58.33;;
17832;SDS011;9041;49.718;21.798;2024-01-10T11:20:18;227.70;;;62.23;;
17832;SDS011;9041;49.718;21.798;2024-01-10T11:22:57;239.73;;;65.00;;
17832;SDS011;9041;49.718;21.798;2024-01-10T11:25:35;234.00;;;62.53;;
17832;SDS011;9041;49.718;21.798;2024-01-10T11:28:02;212.90;;;58.83;;
17832;SDS011;9041;49.718;21.798;2024-01-10T11:30:32;209.10;;;58.17;;
17832;SDS011;9041;49.718;21.798;2024-01-10T11:33:02;197.13;;;56.07;;
17832;SDS011;9041;49.718;21.798;2024-01-10T11:35:29;183.17;;;52.90;;
17832;SDS011;9041;49.718;21.798;2024-01-10T11:37:59;197.37;;;54.37;;
17832;SDS011;9041;49.718;21.798;2024-01-10T11:43:12;200.43;;;55.87;;
17832;SDS011;9041;49.718;21.798;2024-01-10T11:45:44;201.60;;;60.03;;
17832;SDS011;9041;49.718;21.798;2024-01-10T11:48:18;229.63;;;61.57;;
17832;SDS011;9041;49.718;21.798;2024-01-10T11:50:52;234.27;;;63.23;;
17832;SDS011;9041;49.718;21.798;2024-01-10T11:56:08;253.03;;;63.20;;
17832;SDS011;9041;49.718;21.798;2024-01-10T12:01:18;198.93;;;58.13;;
17832;SDS011;9041;49.718;21.798;2024-01-10T12:03:47;171.80;;;50.23;;
17832;SDS011;9041;49.718;21.798;2024-01-10T12:06:14;183.13;;;49.97;;
17832;SDS011;9041;49.718;21.798;2024-01-10T12:08:41;161.23;;;43.40;;
17832;SDS011;9041;49.718;21.798;2024-01-10T12:11:08;145.60;;;42.13;;
17832;SDS011;9041;49.718;21.798;2024-01-10T12:13:34;165.47;;;45.63;;
17832;SDS011;9041;49.718;21.798;2024-01-10T12:16:01;179.23;;;50.60;;
17832;SDS011;9041;49.718;21.798;2024-01-10T12:18:28;197.40;;;52.87;;
17832;SDS011;9041;49.718;21.798;2024-01-10T12:20:56;184.37;;;52.10;;
17832;SDS011;9041;49.718;21.798;2024-01-10T12:23:23;169.73;;;47.67;;
17832;SDS011;9041;49.718;21.798;2024-01-10T12:25:49;156.33;;;43.83;;
17832;SDS011;9041;49.718;21.798;2024-01-10T12:28:16;138.30;;;41.00;;
17832;SDS011;9041;49.718;21.798;2024-01-10T12:30:43;128.10;;;38.00;;
17832;SDS011;9041;49.718;21.798;2024-01-10T12:33:09;131.13;;;38.30;;
17832;SDS011;9041;49.718;21.798;2024-01-10T12:35:36;125.20;;;37.27;;
17832;SDS011;9041;49.718;21.798;2024-01-10T12:38:08;127.30;;;36.53;;
17832;SDS011;9041;49.718;21.798;2024-01-10T12:40:36;112.47;;;33.70;;
17832;SDS011;9041;49.718;21.798;2024-01-10T12:43:03;94.43;;;29.67;;
17832;SDS011;9041;49.718;21.798;2024-01-10T12:45:30;112.23;;;34.10;;
17832;SDS011;9041;49.718;21.798;2024-01-10T12:47:57;91.03;;;28.77;;
17832;SDS011;9041;49.718;21.798;2024-01-10T12:50:24;113.70;;;34.13;;
17832;SDS011;9041;49.718;21.798;2024-01-10T12:52:51;95.70;;;30.67;;
17832;SDS011;9041;49.718;21.798;2024-01-10T12:55:19;109.00;;;33.40;;
17832;SDS011;9041;49.718;21.798;2024-01-10T12:57:46;114.10;;;34.97;;
17832;SDS011;9041;49.718;21.798;2024-01-10T13:00:13;134.93;;;37.87;;
17832;SDS011;9041;49.718;21.798;2024-01-10T13:02:40;134.50;;;37.87;;
17832;SDS011;9041;49.718;21.798;2024-01-10T13:05:07;117.53;;;34.97;;
17832;SDS011;9041;49.718;21.798;2024-01-10T13:07:35;129.37;;;36.07;;
17832;SDS011;9041;49.718;21.798;2024-01-10T13:10:02;122.23;;;38.07;;
17832;SDS011;9041;49.718;21.798;2024-01-10T13:12:30;143.53;;;39.57;;
17832;SDS011;9041;49.718;21.798;2024-01-10T13:14:57;125.53;;;36.00;;
17832;SDS011;9041;49.718;21.798;2024-01-10T13:17:23;119.07;;;36.33;;
17832;SDS011;9041;49.718;21.798;2024-01-10T13:19:50;117.50;;;34.93;;
17832;SDS011;9041;49.718;21.798;2024-01-10T13:22:18;130.40;;;36.27;;
17832;SDS011;9041;49.718;21.798;2024-01-10T13:24:45;118.10;;;37.43;;
17832;SDS011;9041;49.718;21.798;2024-01-10T13:27:12;115.63;;;35.33;;
17832;SDS011;9041;49.718;21.798;2024-01-10T13:29:40;110.83;;;33.37;;
17832;SDS011;9041;49.718;21.798;2024-01-10T13:32:07;113.37;;;32.07;;
17832;SDS011;9041;49.718;21.798;2024-01-10T13:34:35;113.03;;;33.13;;
17832;SDS011;9041;49.718;21.798;2024-01-10T13:37:02;114.53;;;32.43;;
17832;SDS011;9041;49.718;21.798;2024-01-10T13:39:29;97.27;;;30.47;;
17832;SDS011;9041;49.718;21.798;2024-01-10T13:41:56;114.40;;;31.80;;
17832;SDS011;9041;49.718;21.798;2024-01-10T13:44:23;110.60;;;34.13;;
17832;SDS011;9041;49.718;21.798;2024-01-10T13:46:51;120.07;;;34.30;;
17832;SDS011;9041;49.718;21.798;2024-01-10T13:49:17;130.63;;;36.67;;
17832;SDS011;9041;49.718;21.798;2024-01-10T13:51:44;112.83;;;33.60;;
17832;SDS011;9041;49.718;21.798;2024-01-10T13:54:10;97.47;;;29.03;;
17832;SDS011;9041;49.718;21.798;2024-01-10T13:56:37;103.90;;;30.93;;
17832;SDS011;9041;49.718;21.798;2024-01-10T13:59:05;113.27;;;33.77;;
17832;SDS011;9041;49.718;21.798;2024-01-10T14:01:31;128.30;;;37.30;;
17832;SDS011;9041;49.718;21.798;2024-01-10T14:03:59;137.67;;;37.67;;
17832;SDS011;9041;49.718;21.798;2024-01-10T14:06:27;118.33;;;35.03;;
17832;SDS011;9041;49.718;21.798;2024-01-10T14:08:54;123.77;;;36.50;;
17832;SDS011;9041;49.718;21.798;2024-01-10T14:11:20;128.43;;;34.37;;
17832;SDS011;9041;49.718;21.798;2024-01-10T14:13:47;114.57;;;32.77;;
17832;SDS011;9041;49.718;21.798;2024-01-10T14:16:14;109.23;;;32.57;;
17832;SDS011;9041;49.718;21.798;2024-01-10T14:18:40;108.20;;;32.10;;
17832;SDS011;9041;49.718;21.798;2024-01-10T14:21:08;123.60;;;32.20;;